sensor_id;sensor_type;location;lat;lon;timestamp;P1;durP1;ratioP1;P2;durP2;ratioP2
48685;SDS011;34485;51.536;3.816;2023-05-10T00:00:26;24.10;;;10.45;;
48685;SDS011;34485;51.536;3.816;2023-05-10T00:02:52;26.27;;;10.75;;
48685;SDS011;34485;51.536;3.816;2023-05-10T00:05:18;25.17;;;10.10;;
48685;SDS011;34485;51.536;3.816;2023-05-10T00:07:44;26.23;;;9.85;;
48685;SDS011;34485;51.536;3.816;2023-05-10T00:10:10;20.63;;;9.50;;
48685;SDS011;34485;51.536;3.816;2023-05-10T00:12:36;18.40;;;9.97;;
48685;SDS011;34485;51.536;3.816;2023-05-10T00:15:02;24.10;;;10.98;;
48685;SDS011;34485;51.536;3.816;2023-05-10T00:17:28;19.25;;;10.38;;
48685;SDS011;34485;51.536;3.816;2023-05-10T00:19:53;24.30;;;10.07;;
48685;SDS011;34485;51.536;3.816;2023-05-10T00:22:19;26.75;;;9.80;;
48685;SDS011;34485;51.536;3.816;2023-05-10T00:24:45;29.77;;;10.70;;
48685;SDS011;34485;51.536;3.816;2023-05-10T00:27:10;24.38;;;10.57;;
48685;SDS011;34485;51.536;3.816;2023-05-10T00:29:36;34.37;;;12.30;;
48685;SDS011;34485;51.536;3.816;2023-05-10T00:32:02;27.80;;;10.95;;
48685;SDS011;34485;51.536;3.816;2023-05-10T00:34:27;24.80;;;11.03;;
48685;SDS011;34485;51.536;3.816;2023-05-10T00:36:53;22.67;;;9.47;;
48685;SDS011;34485;51.536;3.816;2023-05-10T00:39:18;19.30;;;9.27;;
48685;SDS011;34485;51.536;3.816;2023-05-10T00:41:44;25.37;;;10.90;;
48685;SDS011;34485;51.536;3.816;2023-05-10T00:44:10;19.98;;;10.98;;
48685;SDS011;34485;51.536;3.816;2023-05-10T00:46:35;22.80;;;10.10;;
48685;SDS011;34485;51.536;3.816;2023-05-10T00:49:01;17.50;;;9.35;;
48685;SDS011;34485;51.536;3.816;2023-05-10T00:51:27;29.80;;;11.67;;
48685;SDS011;34485;51.536;3.816;2023-05-10T00:53:53;24.17;;;11.32;;
48685;SDS011;34485;51.536;3.816;2023-05-10T00:56:20;19.02;;;11.52;;
48685;SDS011;34485;51.536;3.816;2023-05-10T00:58:48;20.63;;;11.50;;
48685;SDS011;34485;51.536;3.816;2023-05-10T01:01:14;22.57;;;12.47;;
48685;SDS011;34485;51.536;3.816;2023-05-10T01:03:39;20.08;;;12.60;;
48685;SDS011;34485;51.536;3.816;2023-05-10T01:06:06;21.27;;;12.40;;
48685;SDS011;34485;51.536;3.816;2023-05-10T01:08:32;29.63;;;13.23;;
48685;SDS011;34485;51.536;3.816;2023-05-10T01:10:58;25.03;;;13.13;;
48685;SDS011;34485;51.536;3.816;2023-05-10T01:16:04;17.45;;;10.75;;
48685;SDS011;34485;51.536;3.816;2023-05-10T01:18:32;22.50;;;11.18;;
48685;SDS011;34485;51.536;3.816;2023-05-10T01:32:31;16.70;;;10.23;;
48685;SDS011;34485;51.536;3.816;2023-05-10T01:35:40;13.07;;;9.40;;
48685;SDS011;34485;51.536;3.816;2023-05-10T01:38:17;15.43;;;8.57;;
48685;SDS011;34485;51.536;3.816;2023-05-10T01:43:55;17.40;;;9.38;;
48685;SDS011;34485;51.536;3.816;2023-05-10T01:47:01;26.50;;;9.82;;
48685;SDS011;34485;51.536;3.816;2023-05-10T01:49:25;36.83;;;14.17;;
48685;SDS011;34485;51.536;3.816;2023-05-10T01:51:54;27.25;;;13.68;;
48685;SDS011;34485;51.536;3.816;2023-05-10T01:54:25;34.45;;;15.40;;
48685;SDS011;34485;51.536;3.816;2023-05-10T01:56:59;24.38;;;12.63;;
48685;SDS011;34485;51.536;3.816;2023-05-10T01:59:30;26.42;;;11.95;;
48685;SDS011;34485;51.536;3.816;2023-05-10T02:02:01;22.47;;;12.23;;
48685;SDS011;34485;51.536;3.816;2023-05-10T02:04:27;19.17;;;13.02;;
48685;SDS011;34485;51.536;3.816;2023-05-10T02:06:53;23.35;;;12.57;;
48685;SDS011;34485;51.536;3.816;2023-05-10T02:09:20;28.33;;;13.40;;
48685;SDS011;34485;51.536;3.816;2023-05-10T02:11:47;23.73;;;11.30;;
48685;SDS011;34485;51.536;3.816;2023-05-10T02:14:14;21.47;;;9.40;;
48685;SDS011;34485;51.536;3.816;2023-05-10T02:16:41;26.13;;;10.38;;
48685;SDS011;34485;51.536;3.816;2023-05-10T02:19:07;18.65;;;10.63;;
48685;SDS011;34485;51.536;3.816;2023-05-10T02:21:35;19.08;;;11.43;;
48685;SDS011;34485;51.536;3.816;2023-05-10T02:24:02;23.63;;;11.43;;
48685;SDS011;34485;51.536;3.816;2023-05-10T02:26:29;19.87;;;11.60;;
48685;SDS011;34485;51.536;3.816;2023-05-10T02:28:58;17.77;;;12.75;;
48685;SDS011;34485;51.536;3.816;2023-05-10T02:31:25;20.83;;;13.07;;
48685;SDS011;34485;51.536;3.816;2023-05-10T02:33:51;17.40;;;12.98;;
48685;SDS011;34485;51.536;3.816;2023-05-10T02:36:17;24.80;;;13.73;;
48685;SDS011;34485;51.536;3.816;2023-05-10T02:38:45;20.67;;;13.90;;
48685;SDS011;34485;51.536;3.816;2023-05-10T02:41:13;15.93;;;11.40;;
48685;SDS011;34485;51.536;3.816;2023-05-10T02:43:39;20.73;;;9.80;;
48685;SDS011;34485;51.536;3.816;2023-05-10T02:46:06;16.35;;;8.07;;
48685;SDS011;34485;51.536;3.816;2023-05-10T02:48:32;15.20;;;6.50;;
48685;SDS011;34485;51.536;3.816;2023-05-10T02:51:00;17.48;;;6.53;;
48685;SDS011;34485;51.536;3.816;2023-05-10T02:53:31;15.10;;;5.67;;
48685;SDS011;34485;51.536;3.816;2023-05-10T02:56:00;13.93;;;5.53;;
48685;SDS011;34485;51.536;3.816;2023-05-10T02:58:31;10.00;;;4.55;;
48685;SDS011;34485;51.536;3.816;2023-05-10T03:00:57;18.03;;;4.43;;
48685;SDS011;34485;51.536;3.816;2023-05-10T03:03:24;14.70;;;4.20;;
48685;SDS011;34485;51.536;3.816;2023-05-10T03:05:50;9.50;;;4.22;;
48685;SDS011;34485;51.536;3.816;2023-05-10T03:08:15;11.50;;;3.97;;
48685;SDS011;34485;51.536;3.816;2023-05-10T03:10:43;12.57;;;3.85;;
48685;SDS011;34485;51.536;3.816;2023-05-10T03:13:24;9.37;;;5.63;;
48685;SDS011;34485;51.536;3.816;2023-05-10T03:16:19;11.18;;;6.43;;
48685;SDS011;34485;51.536;3.816;2023-05-10T03:19:16;11.57;;;5.72;;
48685;SDS011;34485;51.536;3.816;2023-05-10T03:21:50;11.18;;;5.25;;
48685;SDS011;34485;51.536;3.816;2023-05-10T03:24:18;9.82;;;4.80;;
48685;SDS011;34485;51.536;3.816;2023-05-10T03:26:47;9.97;;;5.03;;
48685;SDS011;34485;51.536;3.816;2023-05-10T03:29:13;7.00;;;4.30;;
48685;SDS011;34485;51.536;3.816;2023-05-10T03:31:40;9.85;;;4.40;;
48685;SDS011;34485;51.536;3.816;2023-05-10T03:34:06;9.98;;;4.90;;
48685;SDS011;34485;51.536;3.816;2023-05-10T03:36:32;8.73;;;4.47;;
48685;SDS011;34485;51.536;3.816;2023-05-10T03:38:58;11.75;;;5.60;;
48685;SDS011;34485;51.536;3.816;2023-05-10T03:41:24;9.82;;;6.63;;
48685;SDS011;34485;51.536;3.816;2023-05-10T03:43:50;18.63;;;7.88;;
48685;SDS011;34485;51.536;3.816;2023-05-10T03:46:16;15.17;;;10.13;;
48685;SDS011;34485;51.536;3.816;2023-05-10T03:48:41;18.13;;;10.65;;
48685;SDS011;34485;51.536;3.816;2023-05-10T03:51:07;20.50;;;13.07;;
48685;SDS011;34485;51.536;3.816;2023-05-10T03:53:33;29.17;;;16.75;;
48685;SDS011;34485;51.536;3.816;2023-05-10T03:55:58;25.77;;;17.33;;
48685;SDS011;34485;51.536;3.816;2023-05-10T03:58:24;28.65;;;18.35;;
48685;SDS011;34485;51.536;3.816;2023-05-10T04:00:50;31.50;;;19.70;;
48685;SDS011;34485;51.536;3.816;2023-05-10T04:03:16;28.40;;;18.48;;
48685;SDS011;34485;51.536;3.816;2023-05-10T04:05:42;39.83;;;19.35;;
48685;SDS011;34485;51.536;3.816;2023-05-10T04:08:08;33.60;;;19.23;;
48685;SDS011;34485;51.536;3.816;2023-05-10T04:10:34;30.95;;;17.80;;
48685;SDS011;34485;51.536;3.816;2023-05-10T04:13:00;32.30;;;17.60;;
48685;SDS011;34485;51.536;3.816;2023-05-10T04:15:25;31.92;;;18.55;;
48685;SDS011;34485;51.536;3.816;2023-05-10T04:17:51;39.77;;;19.67;;
48685;SDS011;34485;51.536;3.816;2023-05-10T04:20:17;33.60;;;19.73;;
48685;SDS011;34485;51.536;3.816;2023-05-10T04:22:42;39.30;;;20.17;;
48685;SDS011;34485;51.536;3.816;2023-05-10T04:25:08;30.33;;;21.02;;
48685;SDS011;34485;51.536;3.816;2023-05-10T04:27:34;35.00;;;19.83;;
48685;SDS011;34485;51.536;3.816;2023-05-10T04:29:59;39.63;;;20.50;;
48685;SDS011;34485;51.536;3.816;2023-05-10T04:32:25;28.90;;;19.37;;
48685;SDS011;34485;51.536;3.816;2023-05-10T04:34:51;34.88;;;20.00;;
48685;SDS011;34485;51.536;3.816;2023-05-10T04:37:18;31.17;;;19.30;;
48685;SDS011;34485;51.536;3.816;2023-05-10T04:39:43;27.33;;;18.20;;
48685;SDS011;34485;51.536;3.816;2023-05-10T04:42:09;33.08;;;19.02;;
48685;SDS011;34485;51.536;3.816;2023-05-10T04:44:35;30.43;;;18.33;;
48685;SDS011;34485;51.536;3.816;2023-05-10T04:47:01;27.40;;;16.48;;
48685;SDS011;34485;51.536;3.816;2023-05-10T04:49:28;27.67;;;16.95;;
48685;SDS011;34485;51.536;3.816;2023-05-10T04:51:54;33.35;;;18.23;;
48685;SDS011;34485;51.536;3.816;2023-05-10T04:54:20;26.10;;;15.13;;
48685;SDS011;34485;51.536;3.816;2023-05-10T04:56:46;25.05;;;16.25;;
48685;SDS011;34485;51.536;3.816;2023-05-10T04:59:11;27.27;;;18.43;;
48685;SDS011;34485;51.536;3.816;2023-05-10T05:01:37;31.75;;;18.75;;
48685;SDS011;34485;51.536;3.816;2023-05-10T05:04:02;26.97;;;18.17;;
48685;SDS011;34485;51.536;3.816;2023-05-10T05:06:28;23.63;;;16.60;;
48685;SDS011;34485;51.536;3.816;2023-05-10T05:08:54;22.23;;;15.13;;
48685;SDS011;34485;51.536;3.816;2023-05-10T05:11:19;26.10;;;16.33;;
48685;SDS011;34485;51.536;3.816;2023-05-10T05:13:46;23.50;;;13.88;;
48685;SDS011;34485;51.536;3.816;2023-05-10T05:16:11;22.23;;;16.52;;
48685;SDS011;34485;51.536;3.816;2023-05-10T05:18:37;35.47;;;16.03;;
48685;SDS011;34485;51.536;3.816;2023-05-10T05:21:02;29.02;;;14.65;;
48685;SDS011;34485;51.536;3.816;2023-05-10T05:23:28;24.40;;;16.27;;
48685;SDS011;34485;51.536;3.816;2023-05-10T05:25:54;21.07;;;14.57;;
48685;SDS011;34485;51.536;3.816;2023-05-10T05:28:20;22.75;;;15.23;;
48685;SDS011;34485;51.536;3.816;2023-05-10T05:30:46;29.27;;;16.02;;
48685;SDS011;34485;51.536;3.816;2023-05-10T05:33:13;25.30;;;15.50;;
48685;SDS011;34485;51.536;3.816;2023-05-10T05:35:40;21.08;;;12.77;;
48685;SDS011;34485;51.536;3.816;2023-05-10T05:38:06;24.13;;;14.38;;
48685;SDS011;34485;51.536;3.816;2023-05-10T05:40:31;22.57;;;13.23;;
48685;SDS011;34485;51.536;3.816;2023-05-10T05:42:57;27.45;;;12.82;;
48685;SDS011;34485;51.536;3.816;2023-05-10T05:45:23;22.57;;;14.60;;
48685;SDS011;34485;51.536;3.816;2023-05-10T05:47:48;22.33;;;14.10;;
48685;SDS011;34485;51.536;3.816;2023-05-10T05:50:14;21.57;;;13.53;;
48685;SDS011;34485;51.536;3.816;2023-05-10T05:52:39;18.97;;;13.50;;
48685;SDS011;34485;51.536;3.816;2023-05-10T05:55:05;19.92;;;13.15;;
48685;SDS011;34485;51.536;3.816;2023-05-10T05:57:31;20.20;;;12.60;;
48685;SDS011;34485;51.536;3.816;2023-05-10T05:59:56;17.08;;;9.63;;
48685;SDS011;34485;51.536;3.816;2023-05-10T06:02:22;11.37;;;8.97;;
48685;SDS011;34485;51.536;3.816;2023-05-10T06:04:47;11.77;;;7.30;;
48685;SDS011;34485;51.536;3.816;2023-05-10T06:07:13;8.50;;;5.80;;
48685;SDS011;34485;51.536;3.816;2023-05-10T06:09:38;7.23;;;5.30;;
48685;SDS011;34485;51.536;3.816;2023-05-10T06:12:04;8.43;;;5.60;;
48685;SDS011;34485;51.536;3.816;2023-05-10T06:14:30;4.57;;;4.17;;
48685;SDS011;34485;51.536;3.816;2023-05-10T06:16:55;6.85;;;5.03;;
48685;SDS011;34485;51.536;3.816;2023-05-10T06:19:21;6.23;;;5.03;;
48685;SDS011;34485;51.536;3.816;2023-05-10T06:21:47;6.13;;;5.30;;
48685;SDS011;34485;51.536;3.816;2023-05-10T06:24:12;5.88;;;5.38;;
48685;SDS011;34485;51.536;3.816;2023-05-10T06:26:38;7.20;;;4.13;;
48685;SDS011;34485;51.536;3.816;2023-05-10T06:29:03;5.73;;;4.53;;
48685;SDS011;34485;51.536;3.816;2023-05-10T06:31:29;5.90;;;4.93;;
48685;SDS011;34485;51.536;3.816;2023-05-10T06:33:54;8.83;;;5.00;;
48685;SDS011;34485;51.536;3.816;2023-05-10T06:36:20;4.83;;;4.00;;
48685;SDS011;34485;51.536;3.816;2023-05-10T06:38:46;5.97;;;4.82;;
48685;SDS011;34485;51.536;3.816;2023-05-10T06:41:12;8.63;;;5.00;;
48685;SDS011;34485;51.536;3.816;2023-05-10T06:43:38;4.87;;;4.37;;
48685;SDS011;34485;51.536;3.816;2023-05-10T06:46:06;5.43;;;5.03;;
48685;SDS011;34485;51.536;3.816;2023-05-10T06:48:32;6.32;;;4.30;;
48685;SDS011;34485;51.536;3.816;2023-05-10T06:50:58;6.73;;;4.20;;
48685;SDS011;34485;51.536;3.816;2023-05-10T06:53:23;6.57;;;4.22;;
48685;SDS011;34485;51.536;3.816;2023-05-10T06:55:49;4.60;;;3.57;;
48685;SDS011;34485;51.536;3.816;2023-05-10T06:58:14;6.80;;;4.45;;
48685;SDS011;34485;51.536;3.816;2023-05-10T07:00:40;3.97;;;3.67;;
48685;SDS011;34485;51.536;3.816;2023-05-10T07:03:08;3.30;;;3.00;;
48685;SDS011;34485;51.536;3.816;2023-05-10T07:05:36;4.53;;;4.13;;
48685;SDS011;34485;51.536;3.816;2023-05-10T07:08:02;4.60;;;4.10;;
48685;SDS011;34485;51.536;3.816;2023-05-10T07:10:28;4.25;;;3.90;;
48685;SDS011;34485;51.536;3.816;2023-05-10T07:12:54;3.72;;;3.42;;
48685;SDS011;34485;51.536;3.816;2023-05-10T07:15:20;3.33;;;3.00;;
48685;SDS011;34485;51.536;3.816;2023-05-10T07:17:46;3.23;;;2.87;;
48685;SDS011;34485;51.536;3.816;2023-05-10T07:20:11;2.97;;;2.63;;
48685;SDS011;34485;51.536;3.816;2023-05-10T07:22:37;4.10;;;3.17;;
48685;SDS011;34485;51.536;3.816;2023-05-10T07:25:03;3.72;;;2.65;;
48685;SDS011;34485;51.536;3.816;2023-05-10T07:27:29;5.03;;;3.30;;
48685;SDS011;34485;51.536;3.816;2023-05-10T07:29:54;4.00;;;2.53;;
48685;SDS011;34485;51.536;3.816;2023-05-10T07:32:21;3.97;;;3.53;;
48685;SDS011;34485;51.536;3.816;2023-05-10T07:34:47;3.43;;;3.23;;
48685;SDS011;34485;51.536;3.816;2023-05-10T07:37:12;3.28;;;2.63;;
48685;SDS011;34485;51.536;3.816;2023-05-10T07:39:38;12.00;;;3.83;;
48685;SDS011;34485;51.536;3.816;2023-05-10T07:42:03;3.92;;;2.50;;
48685;SDS011;34485;51.536;3.816;2023-05-10T07:44:29;3.60;;;3.30;;
48685;SDS011;34485;51.536;3.816;2023-05-10T07:46:54;2.93;;;2.60;;
48685;SDS011;34485;51.536;3.816;2023-05-10T07:49:20;3.38;;;2.95;;
48685;SDS011;34485;51.536;3.816;2023-05-10T07:51:46;3.08;;;2.88;;
48685;SDS011;34485;51.536;3.816;2023-05-10T07:54:13;3.55;;;2.90;;
48685;SDS011;34485;51.536;3.816;2023-05-10T07:56:39;2.40;;;2.23;;
48685;SDS011;34485;51.536;3.816;2023-05-10T07:59:09;2.90;;;2.65;;
48685;SDS011;34485;51.536;3.816;2023-05-10T08:01:35;2.90;;;2.60;;
48685;SDS011;34485;51.536;3.816;2023-05-10T08:04:00;3.13;;;2.70;;
48685;SDS011;34485;51.536;3.816;2023-05-10T08:06:26;4.25;;;2.40;;
48685;SDS011;34485;51.536;3.816;2023-05-10T08:08:54;5.17;;;2.93;;
48685;SDS011;34485;51.536;3.816;2023-05-10T08:11:20;2.47;;;2.28;;
48685;SDS011;34485;51.536;3.816;2023-05-10T08:13:48;1.80;;;1.70;;
48685;SDS011;34485;51.536;3.816;2023-05-10T08:16:15;2.60;;;2.40;;
48685;SDS011;34485;51.536;3.816;2023-05-10T08:18:42;4.28;;;2.22;;
48685;SDS011;34485;51.536;3.816;2023-05-10T08:21:09;3.25;;;2.60;;
48685;SDS011;34485;51.536;3.816;2023-05-10T08:23:38;2.85;;;2.08;;
48685;SDS011;34485;51.536;3.816;2023-05-10T08:26:04;2.63;;;2.15;;
48685;SDS011;34485;51.536;3.816;2023-05-10T08:28:30;2.27;;;1.73;;
48685;SDS011;34485;51.536;3.816;2023-05-10T08:30:56;2.58;;;2.38;;
48685;SDS011;34485;51.536;3.816;2023-05-10T08:33:22;2.42;;;2.22;;
48685;SDS011;34485;51.536;3.816;2023-05-10T08:35:48;3.85;;;2.90;;
48685;SDS011;34485;51.536;3.816;2023-05-10T08:38:14;2.53;;;2.33;;
48685;SDS011;34485;51.536;3.816;2023-05-10T08:40:41;2.43;;;2.33;;
48685;SDS011;34485;51.536;3.816;2023-05-10T08:43:08;2.58;;;2.45;;
48685;SDS011;34485;51.536;3.816;2023-05-10T08:45:44;2.55;;;2.20;;
48685;SDS011;34485;51.536;3.816;2023-05-10T08:48:11;2.40;;;2.20;;
48685;SDS011;34485;51.536;3.816;2023-05-10T08:50:38;3.05;;;1.73;;
48685;SDS011;34485;51.536;3.816;2023-05-10T08:53:11;1.93;;;1.83;;
48685;SDS011;34485;51.536;3.816;2023-05-10T08:55:38;1.90;;;1.80;;
48685;SDS011;34485;51.536;3.816;2023-05-10T08:58:07;2.30;;;2.08;;
48685;SDS011;34485;51.536;3.816;2023-05-10T09:00:34;4.38;;;1.92;;
48685;SDS011;34485;51.536;3.816;2023-05-10T09:03:01;3.95;;;3.50;;
48685;SDS011;34485;51.536;3.816;2023-05-10T09:05:27;3.37;;;2.70;;
48685;SDS011;34485;51.536;3.816;2023-05-10T09:07:53;4.93;;;2.53;;
48685;SDS011;34485;51.536;3.816;2023-05-10T09:10:19;6.80;;;3.50;;
48685;SDS011;34485;51.536;3.816;2023-05-10T09:12:45;7.55;;;4.40;;
48685;SDS011;34485;51.536;3.816;2023-05-10T09:15:12;3.70;;;3.40;;
48685;SDS011;34485;51.536;3.816;2023-05-10T09:17:40;4.50;;;3.20;;
48685;SDS011;34485;51.536;3.816;2023-05-10T09:20:06;3.85;;;2.75;;
48685;SDS011;34485;51.536;3.816;2023-05-10T09:22:33;4.60;;;3.22;;
48685;SDS011;34485;51.536;3.816;2023-05-10T09:27:38;3.77;;;2.60;;
48685;SDS011;34485;51.536;3.816;2023-05-10T09:30:05;5.03;;;3.45;;
48685;SDS011;34485;51.536;3.816;2023-05-10T09:32:39;4.05;;;3.53;;
48685;SDS011;34485;51.536;3.816;2023-05-10T09:35:06;4.78;;;3.88;;
48685;SDS011;34485;51.536;3.816;2023-05-10T09:37:35;4.00;;;3.55;;
48685;SDS011;34485;51.536;3.816;2023-05-10T09:40:04;4.90;;;3.30;;
48685;SDS011;34485;51.536;3.816;2023-05-10T09:42:31;3.75;;;3.35;;
48685;SDS011;34485;51.536;3.816;2023-05-10T09:45:05;6.47;;;3.57;;
48685;SDS011;34485;51.536;3.816;2023-05-10T09:47:32;3.47;;;3.28;;
48685;SDS011;34485;51.536;3.816;2023-05-10T09:50:00;3.35;;;3.05;;
48685;SDS011;34485;51.536;3.816;2023-05-10T09:52:48;2.90;;;2.70;;
48685;SDS011;34485;51.536;3.816;2023-05-10T09:58:01;4.00;;;3.20;;
48685;SDS011;34485;51.536;3.816;2023-05-10T10:00:27;4.07;;;3.30;;
48685;SDS011;34485;51.536;3.816;2023-05-10T10:02:54;3.75;;;3.45;;
48685;SDS011;34485;51.536;3.816;2023-05-10T10:05:30;3.97;;;3.33;;
48685;SDS011;34485;51.536;3.816;2023-05-10T10:07:58;6.07;;;2.83;;
48685;SDS011;34485;51.536;3.816;2023-05-10T10:10:25;3.87;;;2.30;;
48685;SDS011;34485;51.536;3.816;2023-05-10T10:12:51;5.47;;;2.97;;
48685;SDS011;34485;51.536;3.816;2023-05-10T10:15:18;3.60;;;3.10;;
48685;SDS011;34485;51.536;3.816;2023-05-10T10:17:45;4.72;;;3.20;;
48685;SDS011;34485;51.536;3.816;2023-05-10T10:20:11;3.30;;;3.00;;
48685;SDS011;34485;51.536;3.816;2023-05-10T10:22:37;3.37;;;2.93;;
48685;SDS011;34485;51.536;3.816;2023-05-10T10:25:04;3.63;;;2.30;;
48685;SDS011;34485;51.536;3.816;2023-05-10T10:30:18;3.20;;;2.70;;
48685;SDS011;34485;51.536;3.816;2023-05-10T10:35:28;3.20;;;2.90;;
48685;SDS011;34485;51.536;3.816;2023-05-10T10:37:55;3.70;;;3.33;;
48685;SDS011;34485;51.536;3.816;2023-05-10T10:42:57;5.40;;;4.85;;
48685;SDS011;34485;51.536;3.816;2023-05-10T10:45:43;7.68;;;5.10;;
48685;SDS011;34485;51.536;3.816;2023-05-10T10:48:22;5.17;;;4.63;;
48685;SDS011;34485;51.536;3.816;2023-05-10T10:50:55;4.78;;;4.38;;
48685;SDS011;34485;51.536;3.816;2023-05-10T10:53:22;5.03;;;4.35;;
48685;SDS011;34485;51.536;3.816;2023-05-10T10:55:53;5.72;;;5.10;;
48685;SDS011;34485;51.536;3.816;2023-05-10T10:58:32;6.78;;;4.93;;
48685;SDS011;34485;51.536;3.816;2023-05-10T11:01:15;5.57;;;4.87;;
48685;SDS011;34485;51.536;3.816;2023-05-10T11:04:26;6.43;;;4.20;;
48685;SDS011;34485;51.536;3.816;2023-05-10T11:06:36;3.80;;;3.50;;
48685;SDS011;34485;51.536;3.816;2023-05-10T11:09:05;5.68;;;4.25;;
48685;SDS011;34485;51.536;3.816;2023-05-10T11:11:36;6.78;;;4.13;;
48685;SDS011;34485;51.536;3.816;2023-05-10T11:14:14;6.60;;;5.10;;
48685;SDS011;34485;51.536;3.816;2023-05-10T11:16:44;5.07;;;4.43;;
48685;SDS011;34485;51.536;3.816;2023-05-10T11:19:10;6.90;;;4.50;;
48685;SDS011;34485;51.536;3.816;2023-05-10T11:21:44;5.47;;;4.77;;
48685;SDS011;34485;51.536;3.816;2023-05-10T11:24:36;6.68;;;4.60;;
48685;SDS011;34485;51.536;3.816;2023-05-10T11:27:02;5.22;;;4.22;;
48685;SDS011;34485;51.536;3.816;2023-05-10T11:29:28;7.00;;;4.57;;
48685;SDS011;34485;51.536;3.816;2023-05-10T11:31:53;7.93;;;5.07;;
48685;SDS011;34485;51.536;3.816;2023-05-10T11:34:26;9.18;;;4.72;;
48685;SDS011;34485;51.536;3.816;2023-05-10T11:36:56;6.25;;;5.65;;
48685;SDS011;34485;51.536;3.816;2023-05-10T11:39:26;5.77;;;5.20;;
48685;SDS011;34485;51.536;3.816;2023-05-10T11:41:52;5.40;;;4.90;;
48685;SDS011;34485;51.536;3.816;2023-05-10T11:44:18;6.55;;;4.40;;
48685;SDS011;34485;51.536;3.816;2023-05-10T11:46:44;5.10;;;4.50;;
48685;SDS011;34485;51.536;3.816;2023-05-10T11:49:10;5.53;;;5.03;;
48685;SDS011;34485;51.536;3.816;2023-05-10T11:51:36;4.75;;;4.32;;
48685;SDS011;34485;51.536;3.816;2023-05-10T11:54:05;9.80;;;5.90;;
48685;SDS011;34485;51.536;3.816;2023-05-10T11:56:36;7.47;;;4.68;;
48685;SDS011;34485;51.536;3.816;2023-05-10T11:59:05;5.80;;;5.07;;
48685;SDS011;34485;51.536;3.816;2023-05-10T12:01:31;7.73;;;5.20;;
48685;SDS011;34485;51.536;3.816;2023-05-10T12:03:57;6.25;;;4.90;;
48685;SDS011;34485;51.536;3.816;2023-05-10T12:06:28;6.85;;;5.55;;
48685;SDS011;34485;51.536;3.816;2023-05-10T12:08:56;6.32;;;5.50;;
48685;SDS011;34485;51.536;3.816;2023-05-10T12:11:26;7.05;;;5.82;;
48685;SDS011;34485;51.536;3.816;2023-05-10T12:13:53;6.50;;;4.73;;
48685;SDS011;34485;51.536;3.816;2023-05-10T12:16:20;6.20;;;4.57;;
48685;SDS011;34485;51.536;3.816;2023-05-10T12:19:00;5.72;;;5.15;;
48685;SDS011;34485;51.536;3.816;2023-05-10T12:21:26;6.82;;;4.60;;
48685;SDS011;34485;51.536;3.816;2023-05-10T12:23:54;7.00;;;5.25;;
48685;SDS011;34485;51.536;3.816;2023-05-10T12:26:24;4.93;;;4.30;;
48685;SDS011;34485;51.536;3.816;2023-05-10T12:28:51;5.30;;;3.95;;
48685;SDS011;34485;51.536;3.816;2023-05-10T12:31:19;5.90;;;5.30;;
48685;SDS011;34485;51.536;3.816;2023-05-10T12:33:45;5.75;;;4.10;;
48685;SDS011;34485;51.536;3.816;2023-05-10T12:36:13;5.97;;;3.70;;
48685;SDS011;34485;51.536;3.816;2023-05-10T12:38:41;4.82;;;4.18;;
48685;SDS011;34485;51.536;3.816;2023-05-10T12:41:13;4.70;;;3.90;;
48685;SDS011;34485;51.536;3.816;2023-05-10T12:43:40;5.32;;;4.38;;
48685;SDS011;34485;51.536;3.816;2023-05-10T12:46:09;4.13;;;3.67;;
48685;SDS011;34485;51.536;3.816;2023-05-10T12:48:36;4.22;;;3.63;;
48685;SDS011;34485;51.536;3.816;2023-05-10T12:51:02;5.00;;;3.40;;
48685;SDS011;34485;51.536;3.816;2023-05-10T12:53:29;4.18;;;3.80;;
48685;SDS011;34485;51.536;3.816;2023-05-10T12:55:55;4.13;;;3.73;;
48685;SDS011;34485;51.536;3.816;2023-05-10T12:58:20;5.47;;;3.77;;
48685;SDS011;34485;51.536;3.816;2023-05-10T13:00:46;5.22;;;4.43;;
48685;SDS011;34485;51.536;3.816;2023-05-10T13:03:12;6.47;;;4.40;;
48685;SDS011;34485;51.536;3.816;2023-05-10T13:05:38;5.57;;;4.63;;
48685;SDS011;34485;51.536;3.816;2023-05-10T13:08:04;6.32;;;4.70;;
48685;SDS011;34485;51.536;3.816;2023-05-10T13:10:30;6.03;;;4.90;;
48685;SDS011;34485;51.536;3.816;2023-05-10T13:12:56;7.27;;;5.30;;
48685;SDS011;34485;51.536;3.816;2023-05-10T13:15:23;5.95;;;4.60;;
48685;SDS011;34485;51.536;3.816;2023-05-10T13:17:48;7.00;;;4.82;;
48685;SDS011;34485;51.536;3.816;2023-05-10T13:20:14;8.27;;;5.90;;
48685;SDS011;34485;51.536;3.816;2023-05-10T13:22:41;4.90;;;4.20;;
48685;SDS011;34485;51.536;3.816;2023-05-10T13:25:07;7.38;;;5.20;;
48685;SDS011;34485;51.536;3.816;2023-05-10T13:27:33;5.60;;;5.10;;
48685;SDS011;34485;51.536;3.816;2023-05-10T13:29:59;9.57;;;6.15;;
48685;SDS011;34485;51.536;3.816;2023-05-10T13:32:25;7.83;;;5.90;;
48685;SDS011;34485;51.536;3.816;2023-05-10T13:34:51;11.80;;;5.97;;
48685;SDS011;34485;51.536;3.816;2023-05-10T13:37:17;7.03;;;6.10;;
48685;SDS011;34485;51.536;3.816;2023-05-10T13:39:42;9.63;;;7.80;;
48685;SDS011;34485;51.536;3.816;2023-05-10T13:42:08;11.13;;;6.63;;
48685;SDS011;34485;51.536;3.816;2023-05-10T13:44:33;9.20;;;6.53;;
48685;SDS011;34485;51.536;3.816;2023-05-10T13:46:59;13.67;;;8.10;;
48685;SDS011;34485;51.536;3.816;2023-05-10T13:49:25;11.20;;;7.70;;
48685;SDS011;34485;51.536;3.816;2023-05-10T13:51:50;11.17;;;6.90;;
48685;SDS011;34485;51.536;3.816;2023-05-10T13:54:17;13.55;;;7.07;;
48685;SDS011;34485;51.536;3.816;2023-05-10T13:56:44;13.63;;;8.23;;
48685;SDS011;34485;51.536;3.816;2023-05-10T13:59:12;11.30;;;7.63;;
48685;SDS011;34485;51.536;3.816;2023-05-10T14:01:38;14.65;;;9.27;;
48685;SDS011;34485;51.536;3.816;2023-05-10T14:04:04;10.67;;;7.27;;
48685;SDS011;34485;51.536;3.816;2023-05-10T14:06:30;9.35;;;7.22;;
48685;SDS011;34485;51.536;3.816;2023-05-10T14:08:56;10.70;;;7.07;;
48685;SDS011;34485;51.536;3.816;2023-05-10T14:11:21;12.00;;;7.88;;
48685;SDS011;34485;51.536;3.816;2023-05-10T14:13:48;13.27;;;7.32;;
48685;SDS011;34485;51.536;3.816;2023-05-10T14:16:14;12.67;;;8.00;;
48685;SDS011;34485;51.536;3.816;2023-05-10T14:18:39;12.75;;;7.63;;
48685;SDS011;34485;51.536;3.816;2023-05-10T14:21:05;13.80;;;7.40;;
48685;SDS011;34485;51.536;3.816;2023-05-10T14:23:31;10.77;;;6.80;;
48685;SDS011;34485;51.536;3.816;2023-05-10T14:25:56;13.37;;;7.47;;
48685;SDS011;34485;51.536;3.816;2023-05-10T14:28:22;13.20;;;8.35;;
48685;SDS011;34485;51.536;3.816;2023-05-10T14:30:48;14.23;;;7.33;;
48685;SDS011;34485;51.536;3.816;2023-05-10T14:33:15;13.45;;;7.53;;
48685;SDS011;34485;51.536;3.816;2023-05-10T14:35:41;12.25;;;7.93;;
48685;SDS011;34485;51.536;3.816;2023-05-10T14:38:07;13.68;;;7.22;;
48685;SDS011;34485;51.536;3.816;2023-05-10T14:40:32;14.97;;;8.17;;
48685;SDS011;34485;51.536;3.816;2023-05-10T14:42:58;14.03;;;9.10;;
48685;SDS011;34485;51.536;3.816;2023-05-10T14:45:24;15.57;;;7.63;;
48685;SDS011;34485;51.536;3.816;2023-05-10T14:47:49;13.53;;;8.53;;
48685;SDS011;34485;51.536;3.816;2023-05-10T14:50:15;16.30;;;8.07;;
48685;SDS011;34485;51.536;3.816;2023-05-10T14:52:42;14.13;;;7.83;;
48685;SDS011;34485;51.536;3.816;2023-05-10T14:55:08;11.63;;;7.25;;
48685;SDS011;34485;51.536;3.816;2023-05-10T14:57:35;13.27;;;8.02;;
48685;SDS011;34485;51.536;3.816;2023-05-10T15:00:04;13.88;;;7.30;;
48685;SDS011;34485;51.536;3.816;2023-05-10T15:02:30;15.00;;;7.47;;
48685;SDS011;34485;51.536;3.816;2023-05-10T15:04:56;10.77;;;6.90;;
48685;SDS011;34485;51.536;3.816;2023-05-10T15:07:23;13.32;;;7.00;;
48685;SDS011;34485;51.536;3.816;2023-05-10T15:09:52;13.20;;;6.75;;